This is the latest recevied weather packets stored in our database for station/object HK5VD-30. If no packets are shown the sender has not sent any weather packets the latest 1 day(s).
| Time | Temp. | Humidity | Pressure | Rain* | Wind** | Luminosity | Snow |
|---|---|---|---|---|---|---|---|
| 1778036703 | 22.22° C | 88% | 1014 hPa | 0 mm | 2.24 m/s, 30° | - | - |
| 1778034902 | 21.67° C | 88% | 1014 hPa | 0 mm | 2.24 m/s, 30° | - | - |
| 1778033101 | 23.89° C | 83% | 1013 hPa | 0 mm | 2.24 m/s, 30° | - | - |
| 1778031299 | 23.33° C | 83% | 1013 hPa | 0 mm | 2.24 m/s, 50° | - | - |
| 1778029498 | 22.78° C | 83% | 1012 hPa | 0 mm | 2.24 m/s, 50° | - | - |
| 1778027697 | 25.56° C | 69% | 1012 hPa | 0 mm | 5.81 m/s, 360° | - | - |
| 1778025896 | 26.67° C | 65% | 1011 hPa | 0 mm | 4.47 m/s, 320° | - | - |
| 1778024095 | 26.67° C | 65% | 1011 hPa | 0 mm | 4.47 m/s, 320° | - | - |
| 1778022294 | 28.89° C | 54% | 1009 hPa | 0 mm | 1.79 m/s, 160° | - | - |
| 1778020493 | 28.89° C | 54% | 1009 hPa | 0 mm | 1.79 m/s, 160° | - | - |
| 1778018692 | 30° C | 51% | 1008 hPa | 0 mm | 0.89 m/s, 0° | - | - |
| 1778016891 | 30° C | 51% | 1008 hPa | 0 mm | 0.89 m/s, 0° | - | - |
| 1778015090 | 29.44° C | 58% | 1008 hPa | 0 mm | 1.79 m/s, 110° | - | - |
| 1778013289 | 28.89° C | 58% | 1008 hPa | 0 mm | 1.79 m/s, 110° | - | - |
| 1778011488 | 30.56° C | 73% | 1007 hPa | 0 mm | 2.24 m/s, 200° | - | - |
| 1778009686 | 30° C | 73% | 1007 hPa | 0 mm | 2.24 m/s, 200° | - | - |
| 1778007885 | 29.44° C | 73% | 1008 hPa | 0 mm | 2.24 m/s, 200° | - | - |
| 1778006085 | 28.89° C | 73% | 1008 hPa | 0 mm | 2.24 m/s, 200° | - | - |
| 1778004283 | 28.33° C | 73% | 1010 hPa | 0 mm | 2.24 m/s, 200° | - | - |
| 1778002482 | 27.78° C | 73% | 1010 hPa | 0 mm | 2.24 m/s, 200° | - | - |
| 1778000681 | 27.22° C | 73% | 1012 hPa | 0 mm | 2.24 m/s, 200° | - | - |
| 1777998880 | 26.67° C | 73% | 1012 hPa | 0 mm | 2.24 m/s, 200° | - | - |
| 1777997079 | 26.11° C | 73% | 1014 hPa | 0 mm | 2.24 m/s, 200° | - | - |
| 1777995278 | 25.56° C | 73% | 1013 hPa | 0 mm | 2.24 m/s, 200° | - | - |
| 1777993477 | 25° C | 73% | 1014 hPa | 0 mm | 0.89 m/s, 0° | - | - |
* Rain latest hour (hover to see other rain measurements)
** Current wind speed in m/s (hover to see current wind gust speed)